sensor_id;sensor_type;location;lat;lon;timestamp;temperature;humidity
9271;DHT22;4673;53.458;9.940;2023-08-20T00:00:28;17.80;99.10
9271;DHT22;4673;53.458;9.940;2023-08-20T00:03:12;17.70;99.30
9271;DHT22;4673;53.458;9.940;2023-08-20T00:05:40;17.60;99.30
9271;DHT22;4673;53.458;9.940;2023-08-20T00:08:06;17.60;99.70
9271;DHT22;4673;53.458;9.940;2023-08-20T00:10:32;17.70;99.90
9271;DHT22;4673;53.458;9.940;2023-08-20T00:12:58;17.70;99.90
9271;DHT22;4673;53.458;9.940;2023-08-20T00:15:24;17.60;99.90
9271;DHT22;4673;53.458;9.940;2023-08-20T00:17:54;17.60;99.90
9271;DHT22;4673;53.458;9.940;2023-08-20T00:20:20;17.60;99.90
9271;DHT22;4673;53.458;9.940;2023-08-20T00:22:47;17.50;99.90
9271;DHT22;4673;53.458;9.940;2023-08-20T00:25:13;17.50;99.90
9271;DHT22;4673;53.458;9.940;2023-08-20T00:27:40;17.40;99.90
9271;DHT22;4673;53.458;9.940;2023-08-20T00:30:06;17.50;99.90
9271;DHT22;4673;53.458;9.940;2023-08-20T00:32:32;17.40;99.90
9271;DHT22;4673;53.458;9.940;2023-08-20T00:34:58;17.40;99.90
9271;DHT22;4673;53.458;9.940;2023-08-20T00:37:23;17.40;99.90
9271;DHT22;4673;53.458;9.940;2023-08-20T00:39:49;17.40;99.90
9271;DHT22;4673;53.458;9.940;2023-08-20T00:42:15;17.30;99.90
9271;DHT22;4673;53.458;9.940;2023-08-20T00:44:41;17.20;99.90
9271;DHT22;4673;53.458;9.940;2023-08-20T00:47:09;17.20;99.90
9271;DHT22;4673;53.458;9.940;2023-08-20T00:49:36;17.10;99.90
9271;DHT22;4673;53.458;9.940;2023-08-20T00:52:02;17.10;99.90
9271;DHT22;4673;53.458;9.940;2023-08-20T00:54:29;17.20;99.90
9271;DHT22;4673;53.458;9.940;2023-08-20T00:56:56;17.10;99.90
9271;DHT22;4673;53.458;9.940;2023-08-20T00:59:22;17.00;99.90
9271;DHT22;4673;53.458;9.940;2023-08-20T01:01:48;17.00;99.90
9271;DHT22;4673;53.458;9.940;2023-08-20T01:04:14;17.00;99.90
9271;DHT22;4673;53.458;9.940;2023-08-20T01:06:53;16.90;99.90
9271;DHT22;4673;53.458;9.940;2023-08-20T01:12:14;16.80;99.90
9271;DHT22;4673;53.458;9.940;2023-08-20T01:14:40;16.70;99.90
9271;DHT22;4673;53.458;9.940;2023-08-20T01:17:05;16.60;99.90
9271;DHT22;4673;53.458;9.940;2023-08-20T01:19:31;16.70;99.90
9271;DHT22;4673;53.458;9.940;2023-08-20T01:27:33;16.50;99.90
9271;DHT22;4673;53.458;9.940;2023-08-20T01:30:06;16.50;99.90
9271;DHT22;4673;53.458;9.940;2023-08-20T01:32:34;16.40;99.90
9271;DHT22;4673;53.458;9.940;2023-08-20T01:35:00;16.40;99.90
9271;DHT22;4673;53.458;9.940;2023-08-20T01:37:26;16.30;99.90
9271;DHT22;4673;53.458;9.940;2023-08-20T01:39:51;16.30;99.90
9271;DHT22;4673;53.458;9.940;2023-08-20T01:42:18;16.30;99.90
9271;DHT22;4673;53.458;9.940;2023-08-20T01:44:43;16.30;99.90
9271;DHT22;4673;53.458;9.940;2023-08-20T01:47:09;16.20;99.90
9271;DHT22;4673;53.458;9.940;2023-08-20T01:49:34;16.20;99.90
9271;DHT22;4673;53.458;9.940;2023-08-20T01:52:00;16.20;99.90
9271;DHT22;4673;53.458;9.940;2023-08-20T01:54:26;16.10;99.90
9271;DHT22;4673;53.458;9.940;2023-08-20T01:56:51;16.10;99.90
9271;DHT22;4673;53.458;9.940;2023-08-20T01:59:17;16.10;99.90
9271;DHT22;4673;53.458;9.940;2023-08-20T02:01:44;16.10;99.90
9271;DHT22;4673;53.458;9.940;2023-08-20T02:04:09;16.10;99.90
9271;DHT22;4673;53.458;9.940;2023-08-20T02:06:35;16.00;99.90
9271;DHT22;4673;53.458;9.940;2023-08-20T02:09:00;16.00;99.90
9271;DHT22;4673;53.458;9.940;2023-08-20T02:11:26;16.00;99.90
9271;DHT22;4673;53.458;9.940;2023-08-20T02:13:52;16.00;99.90
9271;DHT22;4673;53.458;9.940;2023-08-20T02:16:17;15.90;99.90
9271;DHT22;4673;53.458;9.940;2023-08-20T02:18:43;15.90;99.90
9271;DHT22;4673;53.458;9.940;2023-08-20T02:21:08;15.90;99.90
9271;DHT22;4673;53.458;9.940;2023-08-20T02:23:34;15.90;99.90
9271;DHT22;4673;53.458;9.940;2023-08-20T02:26:00;15.90;99.90
9271;DHT22;4673;53.458;9.940;2023-08-20T02:28:26;15.80;99.90
9271;DHT22;4673;53.458;9.940;2023-08-20T02:30:52;15.80;99.90
9271;DHT22;4673;53.458;9.940;2023-08-20T02:33:17;15.80;99.90
9271;DHT22;4673;53.458;9.940;2023-08-20T02:35:43;15.80;99.90
9271;DHT22;4673;53.458;9.940;2023-08-20T02:38:09;15.80;99.90
9271;DHT22;4673;53.458;9.940;2023-08-20T02:40:42;15.80;99.90
9271;DHT22;4673;53.458;9.940;2023-08-20T02:43:08;15.80;99.90
9271;DHT22;4673;53.458;9.940;2023-08-20T02:45:42;15.80;99.90
9271;DHT22;4673;53.458;9.940;2023-08-20T02:48:08;15.70;99.90
9271;DHT22;4673;53.458;9.940;2023-08-20T02:50:34;15.70;99.90
9271;DHT22;4673;53.458;9.940;2023-08-20T02:52:59;15.70;99.90
9271;DHT22;4673;53.458;9.940;2023-08-20T02:55:25;15.70;99.90
9271;DHT22;4673;53.458;9.940;2023-08-20T02:57:51;15.70;99.90
9271;DHT22;4673;53.458;9.940;2023-08-20T03:00:16;15.60;99.90
9271;DHT22;4673;53.458;9.940;2023-08-20T03:02:42;15.60;99.90
9271;DHT22;4673;53.458;9.940;2023-08-20T03:05:09;15.60;99.90
9271;DHT22;4673;53.458;9.940;2023-08-20T03:07:35;15.60;99.90
9271;DHT22;4673;53.458;9.940;2023-08-20T03:10:00;15.60;99.90
9271;DHT22;4673;53.458;9.940;2023-08-20T03:12:26;15.60;99.90
9271;DHT22;4673;53.458;9.940;2023-08-20T03:14:52;15.60;99.90
9271;DHT22;4673;53.458;9.940;2023-08-20T03:17:17;15.50;99.90
9271;DHT22;4673;53.458;9.940;2023-08-20T03:20:00;15.50;99.90
9271;DHT22;4673;53.458;9.940;2023-08-20T03:22:26;15.50;99.90
9271;DHT22;4673;53.458;9.940;2023-08-20T03:24:53;15.50;99.90
9271;DHT22;4673;53.458;9.940;2023-08-20T03:27:18;15.50;99.90
9271;DHT22;4673;53.458;9.940;2023-08-20T03:29:45;15.50;99.90
9271;DHT22;4673;53.458;9.940;2023-08-20T03:32:11;15.60;99.90
9271;DHT22;4673;53.458;9.940;2023-08-20T03:34:37;15.50;99.90
9271;DHT22;4673;53.458;9.940;2023-08-20T03:37:03;15.50;99.90
9271;DHT22;4673;53.458;9.940;2023-08-20T03:39:30;15.50;99.90
9271;DHT22;4673;53.458;9.940;2023-08-20T03:41:56;15.50;99.90
9271;DHT22;4673;53.458;9.940;2023-08-20T03:44:22;15.50;99.90
9271;DHT22;4673;53.458;9.940;2023-08-20T03:46:48;15.50;99.90
9271;DHT22;4673;53.458;9.940;2023-08-20T03:49:13;15.40;99.90
9271;DHT22;4673;53.458;9.940;2023-08-20T03:51:39;15.50;99.90
9271;DHT22;4673;53.458;9.940;2023-08-20T03:54:06;15.40;99.90
9271;DHT22;4673;53.458;9.940;2023-08-20T03:56:32;15.60;99.90
9271;DHT22;4673;53.458;9.940;2023-08-20T03:58:57;15.50;99.90
9271;DHT22;4673;53.458;9.940;2023-08-20T04:01:23;15.40;99.90
9271;DHT22;4673;53.458;9.940;2023-08-20T04:03:48;15.50;99.90
9271;DHT22;4673;53.458;9.940;2023-08-20T04:06:14;15.50;99.90
9271;DHT22;4673;53.458;9.940;2023-08-20T04:08:40;15.50;99.90
9271;DHT22;4673;53.458;9.940;2023-08-20T04:11:06;15.50;99.90
9271;DHT22;4673;53.458;9.940;2023-08-20T04:13:32;15.50;99.90
9271;DHT22;4673;53.458;9.940;2023-08-20T04:15:58;15.50;99.90
9271;DHT22;4673;53.458;9.940;2023-08-20T04:18:23;15.50;99.90
9271;DHT22;4673;53.458;9.940;2023-08-20T04:20:53;15.50;99.90
9271;DHT22;4673;53.458;9.940;2023-08-20T04:23:19;15.50;99.90
9271;DHT22;4673;53.458;9.940;2023-08-20T04:25:45;15.50;99.90
9271;DHT22;4673;53.458;9.940;2023-08-20T04:28:14;15.50;99.90
9271;DHT22;4673;53.458;9.940;2023-08-20T04:30:40;15.50;99.90
9271;DHT22;4673;53.458;9.940;2023-08-20T04:33:05;15.50;99.90
9271;DHT22;4673;53.458;9.940;2023-08-20T04:35:31;15.50;99.90
9271;DHT22;4673;53.458;9.940;2023-08-20T04:37:58;15.50;99.90
9271;DHT22;4673;53.458;9.940;2023-08-20T04:40:23;15.60;99.90
9271;DHT22;4673;53.458;9.940;2023-08-20T04:42:49;15.60;99.90
9271;DHT22;4673;53.458;9.940;2023-08-20T04:45:15;15.60;99.90
9271;DHT22;4673;53.458;9.940;2023-08-20T04:47:43;15.60;99.90
9271;DHT22;4673;53.458;9.940;2023-08-20T04:50:09;15.60;99.90
9271;DHT22;4673;53.458;9.940;2023-08-20T04:52:35;15.70;99.90
9271;DHT22;4673;53.458;9.940;2023-08-20T04:55:01;15.70;99.90
9271;DHT22;4673;53.458;9.940;2023-08-20T04:57:27;15.80;99.90
9271;DHT22;4673;53.458;9.940;2023-08-20T04:59:52;15.80;99.90
9271;DHT22;4673;53.458;9.940;2023-08-20T05:02:18;15.90;99.90
9271;DHT22;4673;53.458;9.940;2023-08-20T05:04:44;16.00;99.90
9271;DHT22;4673;53.458;9.940;2023-08-20T05:07:10;16.10;99.90
9271;DHT22;4673;53.458;9.940;2023-08-20T05:09:35;16.10;99.90
9271;DHT22;4673;53.458;9.940;2023-08-20T05:12:01;16.30;99.90
9271;DHT22;4673;53.458;9.940;2023-08-20T05:14:28;16.40;99.90
9271;DHT22;4673;53.458;9.940;2023-08-20T05:16:54;16.60;99.90
9271;DHT22;4673;53.458;9.940;2023-08-20T05:19:20;16.90;99.90
9271;DHT22;4673;53.458;9.940;2023-08-20T05:21:45;16.90;99.90
9271;DHT22;4673;53.458;9.940;2023-08-20T05:24:11;17.20;99.90
9271;DHT22;4673;53.458;9.940;2023-08-20T05:26:37;17.40;99.90
9271;DHT22;4673;53.458;9.940;2023-08-20T05:29:02;17.50;99.90
9271;DHT22;4673;53.458;9.940;2023-08-20T05:31:28;17.60;99.90
9271;DHT22;4673;53.458;9.940;2023-08-20T05:33:54;17.70;99.90
9271;DHT22;4673;53.458;9.940;2023-08-20T05:36:19;17.80;99.90
9271;DHT22;4673;53.458;9.940;2023-08-20T05:38:45;18.00;99.90
9271;DHT22;4673;53.458;9.940;2023-08-20T05:41:10;18.20;99.90
9271;DHT22;4673;53.458;9.940;2023-08-20T05:43:36;18.20;99.90
9271;DHT22;4673;53.458;9.940;2023-08-20T05:46:05;18.20;99.90
9271;DHT22;4673;53.458;9.940;2023-08-20T05:48:31;18.10;99.90
9271;DHT22;4673;53.458;9.940;2023-08-20T05:50:56;18.00;99.90
9271;DHT22;4673;53.458;9.940;2023-08-20T05:53:22;18.00;99.90
9271;DHT22;4673;53.458;9.940;2023-08-20T05:55:48;18.00;99.90
9271;DHT22;4673;53.458;9.940;2023-08-20T05:58:13;18.00;99.90
9271;DHT22;4673;53.458;9.940;2023-08-20T06:00:39;18.00;99.90
9271;DHT22;4673;53.458;9.940;2023-08-20T06:03:05;18.00;99.90
9271;DHT22;4673;53.458;9.940;2023-08-20T06:05:33;18.20;99.90
9271;DHT22;4673;53.458;9.940;2023-08-20T06:07:59;18.40;99.90
9271;DHT22;4673;53.458;9.940;2023-08-20T06:10:24;18.40;99.90
9271;DHT22;4673;53.458;9.940;2023-08-20T06:12:50;18.40;99.00
9271;DHT22;4673;53.458;9.940;2023-08-20T06:15:15;18.30;98.10
9271;DHT22;4673;53.458;9.940;2023-08-20T06:17:41;18.30;97.70
9271;DHT22;4673;53.458;9.940;2023-08-20T06:20:07;18.40;97.60
9271;DHT22;4673;53.458;9.940;2023-08-20T06:22:37;18.50;97.70
9271;DHT22;4673;53.458;9.940;2023-08-20T06:25:04;18.50;97.40
9271;DHT22;4673;53.458;9.940;2023-08-20T06:27:30;18.60;97.00
9271;DHT22;4673;53.458;9.940;2023-08-20T06:29:55;18.60;96.80
9271;DHT22;4673;53.458;9.940;2023-08-20T06:32:21;18.60;96.90
9271;DHT22;4673;53.458;9.940;2023-08-20T06:34:47;18.70;97.50
9271;DHT22;4673;53.458;9.940;2023-08-20T06:37:12;19.00;97.40
9271;DHT22;4673;53.458;9.940;2023-08-20T06:39:38;19.10;96.00
9271;DHT22;4673;53.458;9.940;2023-08-20T06:42:04;19.20;94.60
9271;DHT22;4673;53.458;9.940;2023-08-20T06:44:30;19.20;93.20
9271;DHT22;4673;53.458;9.940;2023-08-20T06:46:55;19.30;92.30
9271;DHT22;4673;53.458;9.940;2023-08-20T06:49:21;19.20;91.40
9271;DHT22;4673;53.458;9.940;2023-08-20T06:51:46;19.20;91.00
9271;DHT22;4673;53.458;9.940;2023-08-20T06:54:14;19.20;91.00
9271;DHT22;4673;53.458;9.940;2023-08-20T06:56:39;19.30;90.80
9271;DHT22;4673;53.458;9.940;2023-08-20T06:59:05;19.20;90.50
9271;DHT22;4673;53.458;9.940;2023-08-20T07:01:30;19.30;90.80
9271;DHT22;4673;53.458;9.940;2023-08-20T07:03:56;19.30;90.60
9271;DHT22;4673;53.458;9.940;2023-08-20T07:06:22;19.40;90.00
9271;DHT22;4673;53.458;9.940;2023-08-20T07:08:47;19.50;90.30
9271;DHT22;4673;53.458;9.940;2023-08-20T07:11:13;19.60;89.70
9271;DHT22;4673;53.458;9.940;2023-08-20T07:13:38;19.70;88.80
9271;DHT22;4673;53.458;9.940;2023-08-20T07:16:04;19.80;88.30
9271;DHT22;4673;53.458;9.940;2023-08-20T07:18:30;19.90;88.00
9271;DHT22;4673;53.458;9.940;2023-08-20T07:20:56;19.90;86.80
9271;DHT22;4673;53.458;9.940;2023-08-20T07:23:22;19.90;86.10
9271;DHT22;4673;53.458;9.940;2023-08-20T07:25:47;20.00;86.00
9271;DHT22;4673;53.458;9.940;2023-08-20T07:28:14;20.00;85.40
9271;DHT22;4673;53.458;9.940;2023-08-20T07:30:40;20.10;85.90
9271;DHT22;4673;53.458;9.940;2023-08-20T07:33:06;20.00;84.60
9271;DHT22;4673;53.458;9.940;2023-08-20T07:35:32;19.80;84.10
9271;DHT22;4673;53.458;9.940;2023-08-20T07:37:58;19.70;84.80
9271;DHT22;4673;53.458;9.940;2023-08-20T07:40:24;19.70;85.60
9271;DHT22;4673;53.458;9.940;2023-08-20T07:42:49;19.90;85.70
9271;DHT22;4673;53.458;9.940;2023-08-20T07:45:16;19.90;85.90
9271;DHT22;4673;53.458;9.940;2023-08-20T07:47:41;20.00;85.40
9271;DHT22;4673;53.458;9.940;2023-08-20T07:50:07;20.10;85.60
9271;DHT22;4673;53.458;9.940;2023-08-20T07:52:33;20.30;85.70
9271;DHT22;4673;53.458;9.940;2023-08-20T07:54:59;20.30;84.30
9271;DHT22;4673;53.458;9.940;2023-08-20T07:57:25;20.20;84.00
9271;DHT22;4673;53.458;9.940;2023-08-20T07:59:51;20.20;84.60
9271;DHT22;4673;53.458;9.940;2023-08-20T08:02:17;20.10;80.00
9271;DHT22;4673;53.458;9.940;2023-08-20T08:04:43;20.20;79.40
9271;DHT22;4673;53.458;9.940;2023-08-20T08:07:09;20.30;72.50
9271;DHT22;4673;53.458;9.940;2023-08-20T08:09:35;20.40;70.60
9271;DHT22;4673;53.458;9.940;2023-08-20T08:12:01;20.40;70.40
9271;DHT22;4673;53.458;9.940;2023-08-20T08:14:27;20.50;69.20
9271;DHT22;4673;53.458;9.940;2023-08-20T08:16:53;20.50;67.10
9271;DHT22;4673;53.458;9.940;2023-08-20T08:19:19;20.60;67.30
9271;DHT22;4673;53.458;9.940;2023-08-20T08:21:46;20.70;68.10
9271;DHT22;4673;53.458;9.940;2023-08-20T08:24:12;20.80;67.20
9271;DHT22;4673;53.458;9.940;2023-08-20T08:26:39;20.80;66.20
9271;DHT22;4673;53.458;9.940;2023-08-20T08:29:05;20.90;65.30
9271;DHT22;4673;53.458;9.940;2023-08-20T08:31:32;20.90;64.40
9271;DHT22;4673;53.458;9.940;2023-08-20T08:33:58;21.00;63.40
9271;DHT22;4673;53.458;9.940;2023-08-20T08:36:24;21.10;62.60
9271;DHT22;4673;53.458;9.940;2023-08-20T08:38:53;21.10;61.60
9271;DHT22;4673;53.458;9.940;2023-08-20T08:41:22;21.20;61.40
9271;DHT22;4673;53.458;9.940;2023-08-20T08:43:49;21.20;61.40
9271;DHT22;4673;53.458;9.940;2023-08-20T08:46:15;21.20;60.40
9271;DHT22;4673;53.458;9.940;2023-08-20T08:48:43;21.30;59.50
9271;DHT22;4673;53.458;9.940;2023-08-20T08:51:09;21.40;59.80
9271;DHT22;4673;53.458;9.940;2023-08-20T08:53:35;21.50;60.20
9271;DHT22;4673;53.458;9.940;2023-08-20T08:56:01;21.60;59.30
9271;DHT22;4673;53.458;9.940;2023-08-20T08:58:28;21.70;59.00
9271;DHT22;4673;53.458;9.940;2023-08-20T09:00:54;21.70;57.20
9271;DHT22;4673;53.458;9.940;2023-08-20T09:03:20;21.80;58.50
9271;DHT22;4673;53.458;9.940;2023-08-20T09:05:49;21.90;58.60
9271;DHT22;4673;53.458;9.940;2023-08-20T09:08:29;22.00;57.10
9271;DHT22;4673;53.458;9.940;2023-08-20T09:10:56;22.10;56.00
9271;DHT22;4673;53.458;9.940;2023-08-20T09:13:36;22.10;56.50
9271;DHT22;4673;53.458;9.940;2023-08-20T09:16:10;22.20;55.50
9271;DHT22;4673;53.458;9.940;2023-08-20T09:18:44;22.20;56.00
9271;DHT22;4673;53.458;9.940;2023-08-20T09:21:12;22.30;56.80
9271;DHT22;4673;53.458;9.940;2023-08-20T09:23:38;22.50;57.10
9271;DHT22;4673;53.458;9.940;2023-08-20T09:26:07;22.60;55.60
9271;DHT22;4673;53.458;9.940;2023-08-20T09:28:43;22.70;55.60
9271;DHT22;4673;53.458;9.940;2023-08-20T09:31:10;22.70;55.20
9271;DHT22;4673;53.458;9.940;2023-08-20T09:33:36;22.60;54.90
9271;DHT22;4673;53.458;9.940;2023-08-20T09:36:05;22.60;54.70
9271;DHT22;4673;53.458;9.940;2023-08-20T09:38:36;22.70;55.00
9271;DHT22;4673;53.458;9.940;2023-08-20T09:41:05;22.80;55.00
9271;DHT22;4673;53.458;9.940;2023-08-20T09:43:38;23.00;54.90
9271;DHT22;4673;53.458;9.940;2023-08-20T09:46:04;23.10;55.10
9271;DHT22;4673;53.458;9.940;2023-08-20T09:48:33;23.30;54.80
9271;DHT22;4673;53.458;9.940;2023-08-20T09:51:04;23.50;53.60
9271;DHT22;4673;53.458;9.940;2023-08-20T09:53:37;23.60;52.60
9271;DHT22;4673;53.458;9.940;2023-08-20T09:56:17;23.70;52.40
9271;DHT22;4673;53.458;9.940;2023-08-20T09:58:47;23.80;51.20
9271;DHT22;4673;53.458;9.940;2023-08-20T10:01:14;23.90;52.10
9271;DHT22;4673;53.458;9.940;2023-08-20T10:03:41;24.00;49.40
9271;DHT22;4673;53.458;9.940;2023-08-20T10:06:08;24.10;49.80
9271;DHT22;4673;53.458;9.940;2023-08-20T10:08:35;24.20;49.30
9271;DHT22;4673;53.458;9.940;2023-08-20T10:11:01;24.30;48.60
9271;DHT22;4673;53.458;9.940;2023-08-20T10:13:27;24.20;48.00
9271;DHT22;4673;53.458;9.940;2023-08-20T10:15:54;24.20;47.10
9271;DHT22;4673;53.458;9.940;2023-08-20T10:18:21;24.10;46.90
9271;DHT22;4673;53.458;9.940;2023-08-20T10:20:50;23.90;46.40
9271;DHT22;4673;53.458;9.940;2023-08-20T10:23:22;23.70;47.60
9271;DHT22;4673;53.458;9.940;2023-08-20T10:25:52;23.90;47.10
9271;DHT22;4673;53.458;9.940;2023-08-20T10:28:27;24.00;48.80
9271;DHT22;4673;53.458;9.940;2023-08-20T10:31:25;24.40;48.30
9271;DHT22;4673;53.458;9.940;2023-08-20T10:33:56;24.80;46.10
9271;DHT22;4673;53.458;9.940;2023-08-20T10:36:23;24.80;43.00
9271;DHT22;4673;53.458;9.940;2023-08-20T10:38:55;24.90;43.90
9271;DHT22;4673;53.458;9.940;2023-08-20T10:41:25;25.10;43.20
9271;DHT22;4673;53.458;9.940;2023-08-20T10:43:51;25.40;42.10
9271;DHT22;4673;53.458;9.940;2023-08-20T10:46:19;25.60;40.40
9271;DHT22;4673;53.458;9.940;2023-08-20T10:51:24;25.40;39.00
9271;DHT22;4673;53.458;9.940;2023-08-20T10:54:07;25.40;40.30
9271;DHT22;4673;53.458;9.940;2023-08-20T10:56:57;25.50;38.90
9271;DHT22;4673;53.458;9.940;2023-08-20T10:59:28;25.50;39.40
9271;DHT22;4673;53.458;9.940;2023-08-20T11:01:58;25.60;39.70
9271;DHT22;4673;53.458;9.940;2023-08-20T11:04:33;25.80;38.00
9271;DHT22;4673;53.458;9.940;2023-08-20T11:06:59;25.70;37.30
9271;DHT22;4673;53.458;9.940;2023-08-20T11:09:27;25.60;37.70
9271;DHT22;4673;53.458;9.940;2023-08-20T11:11:54;25.30;37.20
9271;DHT22;4673;53.458;9.940;2023-08-20T11:14:20;25.10;39.20
9271;DHT22;4673;53.458;9.940;2023-08-20T11:16:47;25.20;38.60
9271;DHT22;4673;53.458;9.940;2023-08-20T11:19:15;25.10;37.90
9271;DHT22;4673;53.458;9.940;2023-08-20T11:21:44;25.00;38.40
9271;DHT22;4673;53.458;9.940;2023-08-20T11:24:10;25.00;39.40
9271;DHT22;4673;53.458;9.940;2023-08-20T11:26:39;25.10;39.20
9271;DHT22;4673;53.458;9.940;2023-08-20T11:29:09;25.10;38.90
9271;DHT22;4673;53.458;9.940;2023-08-20T11:31:38;25.30;39.00
9271;DHT22;4673;53.458;9.940;2023-08-20T11:34:05;25.50;39.40
9271;DHT22;4673;53.458;9.940;2023-08-20T11:36:31;25.70;37.90
9271;DHT22;4673;53.458;9.940;2023-08-20T11:38:57;25.90;35.40
9271;DHT22;4673;53.458;9.940;2023-08-20T11:41:24;26.00;36.10
9271;DHT22;4673;53.458;9.940;2023-08-20T11:43:51;26.00;34.80
9271;DHT22;4673;53.458;9.940;2023-08-20T11:46:24;25.90;34.10
9271;DHT22;4673;53.458;9.940;2023-08-20T11:49:09;26.00;35.60
9271;DHT22;4673;53.458;9.940;2023-08-20T11:51:39;26.10;34.80
9271;DHT22;4673;53.458;9.940;2023-08-20T11:54:12;26.00;35.50
9271;DHT22;4673;53.458;9.940;2023-08-20T11:57:04;26.10;35.10
9271;DHT22;4673;53.458;9.940;2023-08-20T11:59:30;26.00;35.40
9271;DHT22;4673;53.458;9.940;2023-08-20T12:02:01;25.70;34.50
9271;DHT22;4673;53.458;9.940;2023-08-20T12:04:29;25.60;36.50
9271;DHT22;4673;53.458;9.940;2023-08-20T12:07:03;25.70;36.40
9271;DHT22;4673;53.458;9.940;2023-08-20T12:09:30;25.60;35.60
9271;DHT22;4673;53.458;9.940;2023-08-20T12:11:56;25.40;35.80
9271;DHT22;4673;53.458;9.940;2023-08-20T12:14:23;25.40;37.20
9271;DHT22;4673;53.458;9.940;2023-08-20T12:16:49;25.30;36.30
9271;DHT22;4673;53.458;9.940;2023-08-20T12:19:18;25.40;36.80
9271;DHT22;4673;53.458;9.940;2023-08-20T12:21:44;25.30;37.30
9271;DHT22;4673;53.458;9.940;2023-08-20T12:24:10;25.30;37.70
9271;DHT22;4673;53.458;9.940;2023-08-20T12:26:36;25.10;38.00
9271;DHT22;4673;53.458;9.940;2023-08-20T12:29:02;25.00;38.60
9271;DHT22;4673;53.458;9.940;2023-08-20T12:31:28;25.10;38.60
9271;DHT22;4673;53.458;9.940;2023-08-20T12:33:54;25.10;37.90
9271;DHT22;4673;53.458;9.940;2023-08-20T12:36:19;25.20;37.50
9271;DHT22;4673;53.458;9.940;2023-08-20T12:38:45;25.50;36.80
9271;DHT22;4673;53.458;9.940;2023-08-20T12:41:11;25.80;36.20
9271;DHT22;4673;53.458;9.940;2023-08-20T12:43:36;25.70;35.20
9271;DHT22;4673;53.458;9.940;2023-08-20T12:46:02;25.40;35.20
9271;DHT22;4673;53.458;9.940;2023-08-20T12:48:29;25.30;34.70
9271;DHT22;4673;53.458;9.940;2023-08-20T12:50:55;25.30;36.80
9271;DHT22;4673;53.458;9.940;2023-08-20T12:53:21;25.50;36.70
9271;DHT22;4673;53.458;9.940;2023-08-20T12:55:47;25.90;35.70
9271;DHT22;4673;53.458;9.940;2023-08-20T12:58:12;26.00;33.70
9271;DHT22;4673;53.458;9.940;2023-08-20T13:00:38;26.20;33.40
9271;DHT22;4673;53.458;9.940;2023-08-20T13:03:04;26.30;31.70
9271;DHT22;4673;53.458;9.940;2023-08-20T13:05:31;26.30;31.80
9271;DHT22;4673;53.458;9.940;2023-08-20T13:07:56;26.60;32.50
9271;DHT22;4673;53.458;9.940;2023-08-20T13:10:23;27.00;31.60
9271;DHT22;4673;53.458;9.940;2023-08-20T13:12:53;27.30;29.70
9271;DHT22;4673;53.458;9.940;2023-08-20T13:15:21;27.70;28.70
9271;DHT22;4673;53.458;9.940;2023-08-20T13:17:49;27.70;27.00
9271;DHT22;4673;53.458;9.940;2023-08-20T13:20:15;27.70;27.10
9271;DHT22;4673;53.458;9.940;2023-08-20T13:22:47;27.60;27.90
9271;DHT22;4673;53.458;9.940;2023-08-20T13:25:12;27.70;26.30
9271;DHT22;4673;53.458;9.940;2023-08-20T13:27:38;28.00;25.90
9271;DHT22;4673;53.458;9.940;2023-08-20T13:30:05;28.00;25.50
9271;DHT22;4673;53.458;9.940;2023-08-20T13:32:30;27.70;24.90
9271;DHT22;4673;53.458;9.940;2023-08-20T13:34:56;27.50;25.70
9271;DHT22;4673;53.458;9.940;2023-08-20T13:37:21;27.10;25.60
9271;DHT22;4673;53.458;9.940;2023-08-20T13:39:47;26.60;26.70
9271;DHT22;4673;53.458;9.940;2023-08-20T13:42:13;26.00;28.60
9271;DHT22;4673;53.458;9.940;2023-08-20T13:44:38;25.70;30.20
9271;DHT22;4673;53.458;9.940;2023-08-20T13:47:04;25.60;31.10
9271;DHT22;4673;53.458;9.940;2023-08-20T13:49:30;25.70;32.40
9271;DHT22;4673;53.458;9.940;2023-08-20T13:51:55;26.00;31.90
9271;DHT22;4673;53.458;9.940;2023-08-20T13:54:21;26.00;30.30
9271;DHT22;4673;53.458;9.940;2023-08-20T13:56:46;25.80;29.50
9271;DHT22;4673;53.458;9.940;2023-08-20T13:59:12;25.80;30.70
9271;DHT22;4673;53.458;9.940;2023-08-20T14:01:38;25.70;30.50
9271;DHT22;4673;53.458;9.940;2023-08-20T14:04:03;25.70;30.90
9271;DHT22;4673;53.458;9.940;2023-08-20T14:06:29;25.80;30.60
9271;DHT22;4673;53.458;9.940;2023-08-20T14:08:55;25.70;30.80
9271;DHT22;4673;53.458;9.940;2023-08-20T14:11:21;25.60;30.10
9271;DHT22;4673;53.458;9.940;2023-08-20T14:13:49;25.70;29.70
9271;DHT22;4673;53.458;9.940;2023-08-20T14:16:15;25.90;31.10
9271;DHT22;4673;53.458;9.940;2023-08-20T14:18:41;26.10;31.00
9271;DHT22;4673;53.458;9.940;2023-08-20T14:21:06;26.20;29.50
9271;DHT22;4673;53.458;9.940;2023-08-20T14:23:32;26.20;29.30
9271;DHT22;4673;53.458;9.940;2023-08-20T14:25:58;26.00;29.90
9271;DHT22;4673;53.458;9.940;2023-08-20T14:28:24;25.80;30.20
9271;DHT22;4673;53.458;9.940;2023-08-20T14:30:50;25.60;31.30
9271;DHT22;4673;53.458;9.940;2023-08-20T14:33:16;25.60;31.80
9271;DHT22;4673;53.458;9.940;2023-08-20T14:35:42;25.60;31.50
9271;DHT22;4673;53.458;9.940;2023-08-20T14:38:08;25.80;31.70
9271;DHT22;4673;53.458;9.940;2023-08-20T14:40:37;26.00;31.60
9271;DHT22;4673;53.458;9.940;2023-08-20T14:43:08;26.00;29.80
9271;DHT22;4673;53.458;9.940;2023-08-20T14:45:34;26.00;30.90
9271;DHT22;4673;53.458;9.940;2023-08-20T14:48:00;26.00;29.60
9271;DHT22;4673;53.458;9.940;2023-08-20T14:50:26;26.10;29.20
9271;DHT22;4673;53.458;9.940;2023-08-20T14:52:51;26.00;29.00
9271;DHT22;4673;53.458;9.940;2023-08-20T14:55:18;26.00;29.00
9271;DHT22;4673;53.458;9.940;2023-08-20T14:57:44;25.90;27.70
9271;DHT22;4673;53.458;9.940;2023-08-20T15:00:10;26.00;28.70
9271;DHT22;4673;53.458;9.940;2023-08-20T15:02:45;25.70;28.90
9271;DHT22;4673;53.458;9.940;2023-08-20T15:05:11;25.40;29.20
9271;DHT22;4673;53.458;9.940;2023-08-20T15:07:37;25.20;29.20
9271;DHT22;4673;53.458;9.940;2023-08-20T15:10:03;25.10;30.50
9271;DHT22;4673;53.458;9.940;2023-08-20T15:12:38;25.30;30.40
9271;DHT22;4673;53.458;9.940;2023-08-20T15:15:04;25.60;30.00
9271;DHT22;4673;53.458;9.940;2023-08-20T15:17:31;25.70;28.50
9271;DHT22;4673;53.458;9.940;2023-08-20T15:20:00;25.90;28.10
9271;DHT22;4673;53.458;9.940;2023-08-20T15:22:26;26.10;27.50
9271;DHT22;4673;53.458;9.940;2023-08-20T15:24:51;26.10;27.40
9271;DHT22;4673;53.458;9.940;2023-08-20T15:27:18;26.00;26.50
9271;DHT22;4673;53.458;9.940;2023-08-20T15:29:44;25.90;27.40
9271;DHT22;4673;53.458;9.940;2023-08-20T15:32:10;25.90;27.90
9271;DHT22;4673;53.458;9.940;2023-08-20T15:34:36;25.80;27.90
9271;DHT22;4673;53.458;9.940;2023-08-20T15:37:01;25.70;27.40
9271;DHT22;4673;53.458;9.940;2023-08-20T15:39:28;25.70;27.90
9271;DHT22;4673;53.458;9.940;2023-08-20T15:41:53;25.60;29.00
9271;DHT22;4673;53.458;9.940;2023-08-20T15:44:19;25.50;29.50
9271;DHT22;4673;53.458;9.940;2023-08-20T15:46:45;25.50;30.30
9271;DHT22;4673;53.458;9.940;2023-08-20T15:49:10;25.50;30.10
9271;DHT22;4673;53.458;9.940;2023-08-20T15:51:36;25.50;30.20
9271;DHT22;4673;53.458;9.940;2023-08-20T15:54:02;25.60;30.20
9271;DHT22;4673;53.458;9.940;2023-08-20T15:56:28;25.50;30.00
9271;DHT22;4673;53.458;9.940;2023-08-20T15:58:54;25.30;29.60
9271;DHT22;4673;53.458;9.940;2023-08-20T16:01:20;25.20;30.20
9271;DHT22;4673;53.458;9.940;2023-08-20T16:03:45;25.10;31.10
9271;DHT22;4673;53.458;9.940;2023-08-20T16:06:11;24.90;32.50
9271;DHT22;4673;53.458;9.940;2023-08-20T16:08:37;24.60;32.60
9271;DHT22;4673;53.458;9.940;2023-08-20T16:11:03;24.50;34.00